Time;durP1;ratioP1;P1;durP2;ratioP2;P2;SDS_P1;SDS_P2;PMS_P1;PMS_P2;Temp;Humidity;BMP_temperature;BMP_pressure;BME280_temperature;BME280_humidity;BME280_pressure;Samples;Min_cycle;Max_cycle;Signal;HPM_P1;HPM_P2
2021/12/06 00:01:30;;;;;;;106.75;32.38;;;;;;;3.26;100.00;101191.63;5066047;28;20052;-85
2021/12/06 00:04:06;;;;;;;102.47;30.58;;;;;;;3.26;100.00;101195.91;5070556;28;20031;-85
2021/12/06 00:06:34;;;;;;;98.82;30.17;;;;;;;3.26;100.00;101198.47;5074871;28;20063;-85
2021/12/06 00:09:05;;;;;;;116.22;33.25;;;;;;;3.25;100.00;101202.72;5072626;28;20104;-85
2021/12/06 00:11:31;;;;;;;113.07;33.25;;;;;;;3.27;100.00;101206.19;5069853;28;20055;-87
2021/12/06 00:13:56;;;;;;;104.60;32.20;;;;;;;3.31;100.00;101207.91;5068591;28;20020;-85
2021/12/06 00:16:23;;;;;;;107.00;31.95;;;;;;;3.31;100.00;101205.34;5069378;28;20095;-85
2021/12/06 00:18:51;;;;;;;115.20;32.55;;;;;;;3.31;100.00;101199.38;5071176;28;20035;-85
2021/12/06 00:21:19;;;;;;;115.38;32.97;;;;;;;3.30;100.00;101206.19;5070027;28;20070;-85
2021/12/06 00:23:44;;;;;;;109.22;32.13;;;;;;;3.31;100.00;101207.06;5071640;28;20036;-85
2021/12/06 00:26:10;;;;;;;94.63;30.63;;;;;;;3.33;100.00;101211.38;5070117;28;20044;-85
2021/12/06 00:28:37;;;;;;;111.63;31.15;;;;;;;3.33;100.00;101210.50;5071203;28;20450;-85
2021/12/06 00:31:03;;;;;;;109.95;31.95;;;;;;;3.30;100.00;101215.56;5070120;28;20024;-85
2021/12/06 00:33:29;;;;;;;109.75;31.67;;;;;;;3.32;100.00;101221.59;5069514;28;20036;-85
2021/12/06 00:36:03;;;;;;;112.55;31.58;;;;;;;3.34;100.00;101225.03;5061437;28;20024;-85
2021/12/06 00:38:30;;;;;;;111.32;32.65;;;;;;;3.35;100.00;101224.16;5061154;28;20028;-85
2021/12/06 00:40:55;;;;;;;101.95;30.30;;;;;;;3.33;100.00;101220.75;5062921;28;20486;-87
2021/12/06 00:43:20;;;;;;;103.53;30.77;;;;;;;3.31;100.00;101222.44;5068727;28;20044;-85
2021/12/06 00:45:46;;;;;;;100.95;29.65;;;;;;;3.33;100.00;101228.44;5070230;28;20054;-85
2021/12/06 00:48:11;;;;;;;103.63;31.08;;;;;;;3.29;100.00;101229.22;5070888;28;20038;-85
2021/12/06 00:50:39;;;;;;;116.28;32.67;;;;;;;3.24;100.00;101238.56;5070532;28;20493;-85
2021/12/06 00:53:05;;;;;;;115.38;32.60;;;;;;;3.23;100.00;101239.41;5070043;28;20210;-85
2021/12/06 00:55:31;;;;;;;107.03;31.63;;;;;;;3.23;100.00;101242.81;5070171;28;20108;-85
2021/12/06 00:57:57;;;;;;;109.05;32.35;;;;;;;3.26;100.00;101254.81;5071330;28;20035;-85
2021/12/06 01:00:35;;;;;;;106.93;30.88;;;;;;;3.27;100.00;101257.41;5065120;28;20024;-85
2021/12/06 01:03:03;;;;;;;109.55;30.95;;;;;;;3.25;100.00;101259.06;5069625;28;20032;-85
2021/12/06 01:05:29;;;;;;;120.70;33.05;;;;;;;3.28;100.00;101274.47;5071022;28;20051;-85
2021/12/06 01:07:55;;;;;;;110.25;32.70;;;;;;;3.30;100.00;101284.75;5069381;28;20089;-85
2021/12/06 01:10:22;;;;;;;122.63;33.97;;;;;;;3.29;100.00;101281.31;5076688;28;20032;-85
2021/12/06 01:12:48;;;;;;;117.47;32.88;;;;;;;3.27;100.00;101282.16;5066761;28;20463;-85
2021/12/06 01:15:13;;;;;;;115.43;32.17;;;;;;;3.28;100.00;101286.41;5073994;28;20032;-85
2021/12/06 01:17:39;;;;;;;125.97;32.80;;;;;;;3.27;100.00;101297.53;5069268;28;20031;-85
2021/12/06 01:20:08;;;;;;;111.25;31.92;;;;;;;3.28;100.00;101294.09;5070482;28;20411;-85
2021/12/06 01:22:46;;;;;;;125.80;33.67;;;;;;;3.24;100.00;101287.22;5069727;28;20040;-85
2021/12/06 01:26:10;;;;;;;118.00;32.85;;;;;;;3.24;100.00;101287.22;5069221;28;20047;-85
2021/12/06 01:41:36;;;;;;;127.30;31.92;;;;;;;3.20;100.00;101295.72;5051406;28;20040;-85
2021/12/06 01:44:10;;;;;;;124.57;31.65;;;;;;;3.23;100.00;101303.44;5067699;28;20094;-85
2021/12/06 01:46:38;;;;;;;;;;;;;;;3.27;100.00;101303.53;5067662;28;20058;-85
2021/12/06 01:49:06;;;;;;;115.82;29.45;;;;;;;3.25;100.00;101306.88;5067468;28;19951;-85
2021/12/06 01:51:31;;;;;;;128.93;33.63;;;;;;;3.20;100.00;101311.09;5065617;28;20032;-85
2021/12/06 01:53:57;;;;;;;128.75;33.92;;;;;;;3.16;100.00;101300.78;5068083;28;20017;-85
2021/12/06 01:56:22;;;;;;;127.15;32.75;;;;;;;3.14;100.00;101304.16;5069255;28;20103;-85
2021/12/06 01:58:48;;;;;;;130.63;34.45;;;;;;;3.13;100.00;101315.28;5068735;28;20561;-85
2021/12/06 02:01:13;;;;;;;129.05;34.42;;;;;;;3.11;100.00;101315.25;5069108;28;20021;-85
2021/12/06 02:03:39;;;;;;;131.15;33.42;;;;;;;3.12;100.00;101316.97;5068421;28;20329;-85
2021/12/06 02:06:05;;;;;;;123.75;32.72;;;;;;;3.15;100.00;101318.69;5069448;28;20485;-85
2021/12/06 02:08:31;;;;;;;140.60;35.03;;;;;;;3.14;100.00;101322.09;5068978;28;20028;-87
2021/12/06 02:11:02;;;;;;;131.38;34.80;;;;;;;3.09;100.00;101309.22;5071277;28;20407;-85
2021/12/06 02:13:32;;;;;;;134.95;34.33;;;;;;;3.11;100.00;101315.25;5068831;28;20021;-85
2021/12/06 02:15:57;;;;;;;134.25;33.15;;;;;;;3.10;100.00;101312.66;5065091;28;20122;-85
2021/12/06 02:21:02;;;;;;;134.40;33.28;;;;;;;3.10;100.00;101320.34;5067747;28;20068;-85
2021/12/06 02:23:29;;;;;;;130.68;33.83;;;;;;;3.08;100.00;101320.31;5068096;28;20036;-85
2021/12/06 02:25:55;;;;;;;134.93;34.78;;;;;;;3.06;100.00;101313.47;5068150;28;20499;-85
2021/12/06 02:28:20;;;;;;;136.75;35.85;;;;;;;3.04;100.00;101317.69;5066705;28;20032;-85
2021/12/06 02:30:46;;;;;;;126.90;32.97;;;;;;;3.07;100.00;101316.03;5067113;28;20033;-85
2021/12/06 02:33:11;;;;;;;124.93;32.85;;;;;;;3.08;100.00;101319.44;5071773;28;20466;-85
2021/12/06 02:35:37;;;;;;;136.43;32.92;;;;;;;3.09;100.00;101329.72;5069699;28;20035;-85
2021/12/06 02:38:07;;;;;;;133.77;34.65;;;;;;;3.07;100.00;101330.56;5068166;28;20447;-85
2021/12/06 02:40:34;;;;;;;135.88;33.33;;;;;;;3.05;100.00;101335.66;5066461;28;20078;-85
2021/12/06 02:43:02;;;;;;;127.88;33.25;;;;;;;3.06;100.00;101333.94;5068081;28;20115;-85
2021/12/06 02:45:29;;;;;;;122.78;33.83;;;;;;;3.09;100.00;101349.34;5068228;28;20078;-85
2021/12/06 02:47:57;;;;;;;129.77;32.85;;;;;;;3.07;100.00;101338.25;5067326;28;20032;-86
2021/12/06 02:50:26;;;;;;;135.23;33.47;;;;;;;3.10;100.00;101345.94;5069204;28;20017;-85
2021/12/06 02:52:52;;;;;;;122.70;31.98;;;;;;;3.13;100.00;101346.88;5062810;28;20092;-85
2021/12/06 02:55:31;;;;;;;134.30;34.63;;;;;;;3.12;100.00;101355.38;5067047;28;20409;-85
2021/12/06 02:58:13;;;;;;;133.43;33.17;;;;;;;3.16;100.00;101364.81;5060475;28;20020;-85
2021/12/06 03:00:40;;;;;;;121.70;31.73;;;;;;;3.16;100.00;101364.81;5070927;28;20491;-85
2021/12/06 03:03:05;;;;;;;126.00;32.85;;;;;;;3.16;100.00;101364.81;5075226;28;20020;-85
2021/12/06 03:05:31;;;;;;;123.53;31.83;;;;;;;3.18;100.00;101362.28;5067776;28;20107;-85
2021/12/06 03:07:59;;;;;;;140.50;33.05;;;;;;;3.14;100.00;101368.19;5062655;28;20032;-85
2021/12/06 03:10:25;;;;;;;126.38;33.25;;;;;;;3.12;100.00;101360.50;5068949;28;20034;-85
2021/12/06 03:12:51;;;;;;;126.50;32.33;;;;;;;3.14;100.00;101361.38;5068283;28;20029;-85
2021/12/06 03:15:17;;;;;;;123.38;31.30;;;;;;;3.12;100.00;101363.06;5065139;28;20031;-85
2021/12/06 03:17:42;;;;;;;137.50;33.10;;;;;;;3.20;100.00;101367.44;5068176;28;20150;-85
2021/12/06 03:20:13;;;;;;;136.02;32.42;;;;;;;3.17;100.00;101368.25;5067860;28;20041;-85
2021/12/06 03:22:39;;;;;;;126.05;32.10;;;;;;;3.18;100.00;101360.59;5069136;28;20107;-85
2021/12/06 03:25:10;;;;;;;124.90;31.83;;;;;;;3.21;100.00;101366.63;5068166;28;20017;-85
2021/12/06 03:27:36;;;;;;;126.50;32.55;;;;;;;3.22;100.00;101369.16;5068432;28;20135;-85
2021/12/06 03:30:02;;;;;;;136.07;33.20;;;;;;;3.21;100.00;101369.16;5068096;28;20123;-85
2021/12/06 03:32:28;;;;;;;127.88;33.20;;;;;;;3.17;100.00;101373.38;5068274;28;20028;-85
2021/12/06 03:34:53;;;;;;;136.82;34.65;;;;;;;3.17;100.00;101371.69;5064505;28;20399;-85
2021/12/06 03:37:18;;;;;;;129.70;34.20;;;;;;;3.14;100.00;101366.50;5063198;28;20464;-85
2021/12/06 03:39:47;;;;;;;126.18;32.05;;;;;;;3.20;100.00;101375.13;5064661;28;20030;-85
2021/12/06 03:42:15;;;;;;;120.32;32.25;;;;;;;3.17;100.00;101366.56;5065405;28;20025;-86
2021/12/06 03:44:41;;;;;;;128.05;32.00;;;;;;;3.22;100.00;101368.31;5061256;28;20090;-86
2021/12/06 03:47:21;;;;;;;123.95;31.52;;;;;;;3.25;100.00;101374.34;5065443;28;20021;-86
2021/12/06 03:49:46;;;;;;;127.80;33.60;;;;;;;3.24;100.00;101377.75;5067648;28;20483;-86
2021/12/06 03:52:13;;;;;;;128.50;32.17;;;;;;;3.24;100.00;101377.75;5066016;28;20024;-86
2021/12/06 03:54:40;;;;;;;125.70;32.30;;;;;;;3.24;100.00;101385.44;5065316;28;20067;-86
2021/12/06 03:57:06;;;;;;;126.60;31.92;;;;;;;3.21;100.00;101392.22;5066908;28;20219;-86
2021/12/06 03:59:32;;;;;;;130.63;33.25;;;;;;;3.21;100.00;101390.50;5068675;28;20276;-86
2021/12/06 04:01:57;;;;;;;132.55;33.30;;;;;;;3.20;100.00;101385.38;5067647;28;20055;-86
2021/12/06 04:04:22;;;;;;;139.52;33.60;;;;;;;3.15;100.00;101378.47;5070698;28;20036;-86
2021/12/06 04:06:48;;;;;;;136.45;33.83;;;;;;;3.11;100.00;101374.16;5071994;28;20501;-86
2021/12/06 04:09:14;;;;;;;128.38;32.88;;;;;;;3.07;100.00;101377.47;5071101;28;20037;-86
2021/12/06 04:11:40;;;;;;;135.48;33.50;;;;;;;3.05;100.00;101375.75;5070609;28;20051;-86
2021/12/06 04:14:06;;;;;;;131.73;32.97;;;;;;;3.01;100.00;101377.38;5066229;28;20399;-86
2021/12/06 04:16:31;;;;;;;134.13;32.60;;;;;;;2.99;100.00;101370.53;5070608;28;20035;-86
2021/12/06 04:18:57;;;;;;;123.43;31.83;;;;;;;2.98;100.00;101385.03;5071684;28;20107;-88
2021/12/06 04:21:23;;;;;;;132.02;33.53;;;;;;;2.99;100.00;101381.66;5070462;28;20390;-88
2021/12/06 04:23:49;;;;;;;127.78;31.27;;;;;;;3.02;100.00;101389.38;5071339;28;20479;-88
2021/12/06 04:26:15;;;;;;;135.13;33.25;;;;;;;3.03;100.00;101395.34;5070063;28;20059;-88
2021/12/06 04:28:47;;;;;;;143.43;33.70;;;;;;;3.03;100.00;101390.22;5070033;28;20515;-88
2021/12/06 04:31:13;;;;;;;138.15;33.63;;;;;;;3.04;100.00;101389.38;5070643;28;20032;-88
2021/12/06 04:33:38;;;;;;;136.30;33.15;;;;;;;3.03;100.00;101391.09;5070591;28;20089;-88
2021/12/06 04:36:04;;;;;;;136.13;32.28;;;;;;;3.00;100.00;101383.34;5070445;28;20047;-88
2021/12/06 04:38:29;;;;;;;117.93;31.10;;;;;;;2.95;100.00;101374.72;5070321;28;20385;-88
2021/12/06 04:40:54;;;;;;;116.63;30.80;;;;;;;2.91;100.00;101385.78;5068883;28;20047;-88
2021/12/06 04:43:20;;;;;;;117.43;31.10;;;;;;;2.83;100.00;101382.22;5069156;28;20111;-88
2021/12/06 04:45:45;;;;;;;114.15;31.60;;;;;;;2.77;100.00;101390.69;5070471;28;20429;-88
2021/12/06 04:48:10;;;;;;;121.25;30.73;;;;;;;2.66;100.00;101394.72;5066331;28;20020;-88
2021/12/06 04:50:37;;;;;;;115.18;30.00;;;;;;;2.56;100.00;101400.53;5068624;28;20111;-86
2021/12/06 04:53:13;;;;;;;105.22;27.35;;;;;;;2.44;100.00;101396.91;5071061;28;20027;-86
2021/12/06 04:55:49;;;;;;;106.75;29.77;;;;;;;2.29;100.00;101406.00;5063996;28;20032;-86
2021/12/06 04:58:22;;;;;;;110.10;28.58;;;;;;;2.13;100.00;101401.44;5068144;28;20027;-86
2021/12/06 05:00:53;;;;;;;106.75;28.00;;;;;;;1.99;100.00;101407.97;5065815;28;20089;-85
2021/12/06 05:03:19;;;;;;;99.28;26.80;;;;;;;1.87;100.00;101412.81;5065243;28;20028;-86
2021/12/06 05:05:49;;;;;;;104.45;27.25;;;;;;;1.73;100.00;101415.09;5068402;28;20036;-86
2021/12/06 05:08:22;;;;;;;102.10;26.45;;;;;;;1.61;100.00;101417.41;5076339;28;20024;-85
2021/12/06 05:10:49;;;;;;;96.43;26.73;;;;;;;1.52;100.00;101423.16;5071665;28;20224;-85
2021/12/06 05:13:15;;;;;;;100.13;26.23;;;;;;;1.41;100.00;101422.06;5066317;28;20061;-86
2021/12/06 05:15:40;;;;;;;96.65;26.88;;;;;;;1.32;100.00;101420.97;5083746;28;20435;-85
2021/12/06 05:18:05;;;;;;;107.60;26.15;;;;;;;1.22;100.00;101414.81;5066014;28;20036;-85
2021/12/06 05:20:31;;;;;;;89.82;25.73;;;;;;;1.12;100.00;101425.63;5067878;28;20063;-86
2021/12/06 05:22:57;;;;;;;97.20;25.88;;;;;;;1.05;100.00;101427.16;5069993;28;20538;-85
2021/12/06 05:25:25;;;;;;;96.25;25.98;;;;;;;0.96;100.00;101426.06;5069128;28;21063;-85
2021/12/06 05:27:51;;;;;;;83.57;23.27;;;;;;;0.84;100.00;101421.53;5069868;28;20549;-85
2021/12/06 05:30:20;;;;;;;87.72;25.15;;;;;;;0.79;100.00;101430.78;5072406;28;20040;-85
2021/12/06 05:32:45;;;;;;;83.00;24.17;;;;;;;0.76;100.00;101438.31;5070283;28;20490;-85
2021/12/06 05:35:11;;;;;;;88.90;24.80;;;;;;;0.67;100.00;101443.22;5068926;28;20043;-85
2021/12/06 05:37:42;;;;;;;87.05;23.73;;;;;;;0.59;100.00;101444.69;5070003;28;20028;-85
2021/12/06 05:40:14;;;;;;;87.47;23.35;;;;;;;0.54;100.00;101436.06;5068856;28;20186;-85
2021/12/06 05:42:39;;;;;;;87.15;24.25;;;;;;;0.50;100.00;101442.75;5065482;28;20063;-85
2021/12/06 05:45:06;;;;;;;80.30;23.90;;;;;;;0.42;100.00;101431.50;5069055;28;20047;-85
2021/12/06 05:47:31;;;;;;;89.97;25.63;;;;;;;0.38;100.00;101435.66;5069475;28;20053;-85
2021/12/06 05:49:57;;;;;;;87.95;24.67;;;;;;;0.34;100.00;101430.44;5066740;28;20400;-85
2021/12/06 05:52:22;;;;;;;88.40;25.50;;;;;;;0.28;100.00;101427.69;5069148;28;20117;-85
2021/12/06 05:54:48;;;;;;;83.53;24.13;;;;;;;0.21;100.00;101413.91;5067857;28;20021;-85
2021/12/06 05:57:14;;;;;;;86.65;24.38;;;;;;;0.22;100.00;101430.09;5066368;28;20028;-84
2021/12/06 05:59:41;;;;;;;89.63;25.50;;;;;;;0.16;100.00;101432.47;5069768;28;20020;-85
2021/12/06 06:02:07;;;;;;;77.47;23.25;;;;;;;0.13;100.00;101432.41;5068481;28;20475;-84
2021/12/06 06:04:33;;;;;;;76.60;22.50;;;;;;;0.10;100.00;101434.84;5066814;28;20031;-85
2021/12/06 06:06:59;;;;;;;78.80;23.40;;;;;;;0.08;100.00;101441.56;5066042;28;20028;-85
2021/12/06 06:09:25;;;;;;;73.65;22.33;;;;;;;0.03;100.00;101443.13;5077645;28;20381;-85
2021/12/06 06:11:51;;;;;;;84.68;24.17;;;;;;;-0.03;100.00;101439.59;5071323;28;20024;-85
2021/12/06 06:14:16;;;;;;;79.43;23.15;;;;;;;-0.05;100.00;101441.22;5069823;28;20024;-86
2021/12/06 06:16:50;;;;;;;80.47;23.63;;;;;;;0.05;100.00;101457.66;5069695;28;20032;-85
2021/12/06 06:19:18;;;;;;;77.72;24.00;;;;;;;0.12;100.00;101462.13;5069591;28;20028;-85
2021/12/06 06:21:45;;;;;;;78.63;22.73;;;;;;;0.16;100.00;101463.06;5073574;28;20115;-86
2021/12/06 06:24:10;;;;;;;79.20;23.75;;;;;;;0.19;100.00;101456.38;5069085;28;20050;-85
2021/12/06 06:26:35;;;;;;;85.32;23.85;;;;;;;0.24;100.00;101459.91;5071062;28;20060;-85
2021/12/06 06:29:01;;;;;;;82.60;23.23;;;;;;;0.27;100.00;101457.41;5073433;28;20522;-86
2021/12/06 06:31:26;;;;;;;78.30;23.45;;;;;;;0.35;100.00;101457.63;5069582;28;20036;-85
2021/12/06 06:33:51;;;;;;;81.57;23.88;;;;;;;0.36;100.00;101460.22;5069622;28;20029;-85
2021/12/06 06:36:17;;;;;;;77.65;23.88;;;;;;;0.38;100.00;101462.84;5069867;28;20071;-85
2021/12/06 06:38:42;;;;;;;85.40;25.40;;;;;;;0.43;100.00;101468.03;5069761;28;20033;-86
2021/12/06 06:41:08;;;;;;;99.03;25.90;;;;;;;0.44;100.00;101464.69;5069118;28;20032;-85
2021/12/06 06:43:35;;;;;;;107.68;26.27;;;;;;;0.47;100.00;101465.66;5069905;28;20020;-86
2021/12/06 06:46:04;;;;;;;106.00;27.08;;;;;;;0.49;100.00;101463.97;5068242;28;20498;-85
2021/12/06 06:48:30;;;;;;;98.05;25.17;;;;;;;0.50;100.00;101459.75;5076839;28;20329;-85
2021/12/06 06:50:55;;;;;;;105.28;26.73;;;;;;;0.59;100.00;101462.56;5074059;28;20195;-85
2021/12/06 06:53:21;;;;;;;111.28;27.75;;;;;;;0.65;100.00;101475.47;5070532;28;20078;-85
2021/12/06 06:55:46;;;;;;;93.03;27.27;;;;;;;0.68;100.00;101476.41;5071054;28;20039;-85
2021/12/06 06:58:12;;;;;;;109.90;27.27;;;;;;;0.74;100.00;101468.06;5073008;28;20108;-85
2021/12/06 07:00:39;;;;;;;112.97;27.60;;;;;;;0.80;100.00;101470.78;5069110;28;20039;-85
2021/12/06 07:03:06;;;;;;;149.63;28.27;;;;;;;0.91;100.00;101476.13;5068676;28;20020;-85
2021/12/06 07:05:32;;;;;;;142.65;29.52;;;;;;;0.96;100.00;101477.09;5067538;28;20032;-85
2021/12/06 07:07:58;;;;;;;126.72;28.88;;;;;;;1.03;100.00;101484.09;5067088;28;20082;-85
2021/12/06 07:10:24;;;;;;;107.03;28.00;;;;;;;1.08;100.00;101480.84;5073630;28;20445;-85
2021/12/06 07:12:52;;;;;;;104.13;28.27;;;;;;;1.11;100.00;101487.72;5067216;28;20108;-85
2021/12/06 07:15:25;;;;;;;108.55;28.13;;;;;;;1.17;100.00;101487.84;5069967;28;20024;-85
2021/12/06 07:17:51;;;;;;;151.43;29.05;;;;;;;1.15;100.00;101480.19;5067989;28;20035;-85
2021/12/06 07:20:18;;;;;;;116.43;28.40;;;;;;;1.19;100.00;101487.09;5068400;28;20052;-85
2021/12/06 07:22:44;;;;;;;97.22;27.25;;;;;;;1.26;100.00;101495.75;5068654;28;20036;-85
2021/12/06 07:25:11;;;;;;;184.60;31.65;;;;;;;1.28;100.00;101493.25;5059466;28;20028;-85
2021/12/06 07:27:37;;;;;;;152.85;29.95;;;;;;;1.31;100.00;101501.81;5067835;28;20036;-85
2021/12/06 07:30:04;;;;;;;100.95;28.17;;;;;;;1.35;100.00;101503.66;5066924;28;20032;-88
2021/12/06 07:32:29;;;;;;;77.85;26.10;;;;;;;1.42;100.00;101509.78;5074986;28;20036;-88
2021/12/06 07:34:55;;;;;;;139.25;26.83;;;;;;;1.42;100.00;101508.09;5076782;28;20028;-87
2021/12/06 07:37:21;;;;;;;98.68;26.52;;;;;;;1.48;100.00;101507.34;5072451;28;20020;-88
2021/12/06 07:39:47;;;;;;;114.22;26.77;;;;;;;1.52;100.00;101512.56;5073727;28;20039;-88
2021/12/06 07:42:12;;;;;;;80.90;24.80;;;;;;;1.53;100.00;101509.19;5071177;28;20032;-88
2021/12/06 07:44:42;;;;;;;85.22;26.65;;;;;;;1.57;100.00;101521.19;5073135;28;20107;-93
2021/12/06 07:47:09;;;;;;;95.68;26.55;;;;;;;1.60;100.00;101517.84;5078417;28;20048;-92
2021/12/06 07:49:37;;;;;;;91.10;27.38;;;;;;;1.66;100.00;101523.09;5071360;28;20029;-92
2021/12/06 07:52:06;;;;;;;108.78;29.73;;;;;;;1.71;100.00;101526.63;5069004;28;20044;-91
2021/12/06 07:54:32;;;;;;;110.18;29.48;;;;;;;1.75;100.00;101520.78;5072660;28;20127;-92
2021/12/06 07:56:58;;;;;;;93.97;29.95;;;;;;;1.78;100.00;101508.06;5072654;28;20108;-90
2021/12/06 07:59:24;;;;;;;122.82;31.50;;;;;;;1.81;100.00;101507.25;5080724;28;20206;-91
2021/12/06 08:01:49;;;;;;;111.05;31.55;;;;;;;1.82;100.00;101497.09;5077174;28;20147;-92
2021/12/06 08:04:16;;;;;;;121.53;31.73;;;;;;;1.81;100.00;101497.03;5075050;28;20036;-92
2021/12/06 08:06:41;;;;;;;122.40;30.88;;;;;;;1.83;100.00;101492.84;5062699;28;20100;-91
2021/12/06 08:09:07;;;;;;;143.73;32.00;;;;;;;1.85;100.00;101498.81;5077125;28;20497;-92
2021/12/06 08:11:33;;;;;;;138.68;33.28;;;;;;;1.86;100.00;101498.00;5070052;28;20492;-92
2021/12/06 08:13:59;;;;;;;113.95;33.20;;;;;;;1.92;100.00;101493.03;5070627;28;20570;-92
2021/12/06 08:16:34;;;;;;;156.95;35.17;;;;;;;1.96;100.00;101489.72;5070876;28;20032;-92
2021/12/06 08:18:59;;;;;;;;;;;;;;;1.99;100.00;101489.75;5071011;28;20081;-92
2021/12/06 08:21:26;;;;;;;173.87;35.70;;;;;;;1.99;100.00;101489.75;5072249;28;20007;-92
2021/12/06 08:23:52;;;;;;;206.13;36.20;;;;;;;2.01;100.00;101482.13;5080561;28;20275;-93
2021/12/06 08:26:23;;;;;;;174.55;37.53;;;;;;;2.03;100.00;101494.13;5070782;28;20054;-93
2021/12/06 08:28:49;;;;;;;204.07;39.10;;;;;;;2.05;100.00;101489.88;5070254;28;20062;-93
2021/12/06 08:31:15;;;;;;;252.98;39.63;;;;;;;2.07;100.00;101487.38;5072261;28;20032;-95
2021/12/06 08:33:41;;;;;;;189.40;40.00;;;;;;;2.14;100.00;101489.22;5072196;28;20024;-93
2021/12/06 08:36:09;;;;;;;143.00;37.25;;;;;;;2.20;100.00;101484.25;5076978;28;20390;-92
2021/12/06 08:38:35;;;;;;;132.48;36.55;;;;;;;2.24;100.00;101486.91;5079401;28;20044;-92
2021/12/06 08:41:04;;;;;;;137.63;36.72;;;;;;;2.26;100.00;101500.56;5070694;28;20024;-92
2021/12/06 08:43:30;;;;;;;145.55;37.80;;;;;;;2.33;100.00;101502.44;5069284;28;20025;-93
2021/12/06 08:46:00;;;;;;;145.68;35.88;;;;;;;2.36;100.00;101505.06;5072518;28;20493;-92
2021/12/06 08:48:35;;;;;;;141.98;36.58;;;;;;;2.44;100.00;101512.88;5071839;28;20460;-93
2021/12/06 08:51:06;;;;;;;146.88;35.70;;;;;;;2.48;100.00;101518.91;5071153;28;20031;-93
2021/12/06 08:53:32;;;;;;;140.18;37.55;;;;;;;2.52;100.00;101513.03;5071770;28;20055;-92
2021/12/06 08:55:57;;;;;;;128.40;35.22;;;;;;;2.54;100.00;101522.47;5069730;28;20532;-93
2021/12/06 08:58:23;;;;;;;180.20;38.10;;;;;;;2.59;100.00;101525.13;5070374;28;20039;-84
2021/12/06 09:00:50;;;;;;;148.60;37.67;;;;;;;2.63;100.00;101526.91;5071686;28;20067;-84
2021/12/06 09:03:16;;;;;;;164.80;38.17;;;;;;;2.63;100.00;101527.75;5068085;28;20016;-82
2021/12/06 09:05:45;;;;;;;134.88;36.05;;;;;;;2.69;100.00;101527.03;5072032;28;20028;-81
2021/12/06 09:08:11;;;;;;;142.60;37.13;;;;;;;2.73;100.00;101526.22;5080132;28;20483;-81
2021/12/06 09:10:37;;;;;;;150.88;37.15;;;;;;;2.80;100.00;101530.63;5072148;28;20027;-85
2021/12/06 09:13:04;;;;;;;136.75;35.65;;;;;;;2.83;100.00;101520.47;5071444;28;20024;-89
2021/12/06 09:15:31;;;;;;;152.55;36.22;;;;;;;2.90;100.00;101524.00;5071830;28;20243;-90
2021/12/06 09:17:57;;;;;;;147.05;36.28;;;;;;;2.89;100.00;101518.00;5072551;28;20028;-90
2021/12/06 09:20:30;;;;;;;149.48;36.63;;;;;;;2.96;100.00;101530.09;5072092;28;20045;-90
2021/12/06 09:22:55;;;;;;;167.68;38.30;;;;;;;3.00;100.00;101528.47;5073807;28;20028;-90
2021/12/06 09:25:21;;;;;;;182.60;38.72;;;;;;;3.05;100.00;101530.28;5071376;28;20085;-90
2021/12/06 09:27:47;;;;;;;180.13;37.80;;;;;;;3.05;100.00;101535.41;5075626;28;20032;-89
2021/12/06 09:30:19;;;;;;;173.13;38.03;;;;;;;3.06;100.00;101526.88;5070472;28;20025;-89
2021/12/06 09:32:46;;;;;;;189.60;35.90;;;;;;;2.99;100.00;101527.59;5069795;28;20052;-90
2021/12/06 09:35:15;;;;;;;182.20;37.10;;;;;;;2.93;100.00;101521.50;5069394;28;20340;-90
2021/12/06 09:37:42;;;;;;;175.75;38.20;;;;;;;2.88;100.00;101517.97;5070680;28;20028;-90
2021/12/06 09:40:08;;;;;;;174.73;36.22;;;;;;;2.88;100.00;101528.22;5069954;28;20036;-90
2021/12/06 09:42:36;;;;;;;188.20;36.80;;;;;;;2.88;100.00;101535.91;5070881;28;20025;-90
2021/12/06 09:45:06;;;;;;;193.63;36.72;;;;;;;2.89;100.00;101538.50;5071067;28;20020;-89
2021/12/06 09:47:32;;;;;;;165.48;35.72;;;;;;;2.92;100.00;101530.03;5069532;28;20024;-88
2021/12/06 09:49:57;;;;;;;173.88;36.83;;;;;;;2.97;100.00;101526.69;5070770;28;20031;-88
2021/12/06 09:52:23;;;;;;;169.40;36.20;;;;;;;3.01;100.00;101525.91;5064895;28;20013;-88
2021/12/06 09:54:49;;;;;;;179.68;36.63;;;;;;;3.04;100.00;101530.22;5069373;28;20054;-88
2021/12/06 09:57:14;;;;;;;189.60;36.30;;;;;;;3.03;100.00;101518.25;5073744;28;20067;-89
2021/12/06 09:59:41;;;;;;;169.75;36.65;;;;;;;3.02;100.00;101525.06;5073299;28;20024;-89
2021/12/06 10:02:26;;;;;;;192.38;37.30;;;;;;;3.07;100.00;101531.13;5071366;28;20516;-84
2021/12/06 10:04:54;;;;;;;182.00;35.78;;;;;;;3.09;100.00;101534.59;5070531;28;20028;-88
2021/12/06 10:07:22;;;;;;;171.18;35.65;;;;;;;3.14;100.00;101532.09;5074023;28;20034;-86
2021/12/06 10:09:50;;;;;;;165.35;35.90;;;;;;;3.15;100.00;101529.59;5076925;28;20032;-85
2021/12/06 10:12:17;;;;;;;181.82;36.78;;;;;;;3.17;100.00;101520.22;5070208;28;20122;-82
2021/12/06 10:14:44;;;;;;;169.70;35.03;;;;;;;3.18;100.00;101518.53;5070410;28;20024;-81
2021/12/06 10:17:11;;;;;;;170.77;36.17;;;;;;;3.19;100.00;101515.16;5069139;28;20421;-80
2021/12/06 10:19:37;;;;;;;160.85;35.97;;;;;;;3.22;100.00;101509.19;5069261;28;20074;-82
2021/12/06 10:22:03;;;;;;;179.82;36.10;;;;;;;3.22;100.00;101492.13;5069580;28;20064;-81
2021/12/06 10:24:30;;;;;;;170.70;35.47;;;;;;;3.25;100.00;101493.88;5068163;28;20044;-82
2021/12/06 10:27:11;;;;;;;174.52;37.67;;;;;;;3.26;100.00;101490.50;5071090;28;20024;-82
2021/12/06 10:29:44;;;;;;;170.85;35.40;;;;;;;3.25;100.00;101487.06;5069802;28;20029;-82
2021/12/06 10:32:19;;;;;;;174.43;37.65;;;;;;;3.24;100.00;101481.91;5067350;28;20094;-91
2021/12/06 10:34:57;;;;;;;174.55;36.97;;;;;;;3.26;100.00;101482.81;5070511;28;20032;-83
2021/12/06 10:37:53;;;;;;;186.20;37.35;;;;;;;3.30;100.00;101477.75;5069214;28;20028;-81
2021/12/06 10:40:22;;;;;;;170.40;34.72;;;;;;;3.28;100.00;101481.97;5063471;28;20109;-82
2021/12/06 10:42:50;;;;;;;172.18;35.75;;;;;;;3.31;100.00;101484.59;5076447;28;20033;-81
2021/12/06 10:45:25;;;;;;;170.00;35.10;;;;;;;3.33;100.00;101482.06;5070661;28;20491;-82
2021/12/06 10:48:11;;;;;;;176.85;34.30;;;;;;;3.34;100.00;101473.56;5068478;28;20055;-82
2021/12/06 10:50:44;;;;;;;170.35;34.90;;;;;;;3.34;100.00;101465.88;5068746;28;20039;-80
2021/12/06 10:53:11;;;;;;;158.38;30.95;;;;;;;3.33;100.00;101447.06;5069532;28;20016;-81
2021/12/06 10:55:38;;;;;;;157.50;32.30;;;;;;;3.36;100.00;101448.78;5069489;28;20546;-81
2021/12/06 10:58:06;;;;;;;144.48;30.70;;;;;;;3.38;100.00;101447.13;5068408;28;20090;-81
2021/12/06 11:00:49;;;;;;;135.60;28.23;;;;;;;3.41;100.00;101440.31;5079198;28;20090;-82
2021/12/06 11:03:40;;;;;;;129.02;28.70;;;;;;;3.42;100.00;101433.50;5067567;28;20452;-82
2021/12/06 11:06:15;;;;;;;136.68;27.90;;;;;;;3.43;100.00;101419.84;5063332;28;20041;-82
2021/12/06 11:08:42;;;;;;;140.35;29.08;;;;;;;3.43;100.00;101413.03;5068999;28;20031;-83
2021/12/06 11:11:20;;;;;;;143.40;28.77;;;;;;;3.46;100.00;101407.09;5072048;28;20859;-82
2021/12/06 11:13:52;;;;;;;133.35;27.40;;;;;;;3.47;100.00;101409.69;5071094;28;20055;-82
2021/12/06 11:16:22;;;;;;;147.13;27.73;;;;;;;3.52;100.00;101407.19;5071806;28;20032;-82
2021/12/06 11:19:04;;;;;;;137.45;25.95;;;;;;;3.53;100.00;101408.91;5071939;28;20127;-82
2021/12/06 11:21:51;;;;;;;144.95;25.63;;;;;;;3.55;100.00;101410.63;5071513;28;20047;-81
2021/12/06 11:24:30;;;;;;;155.38;26.33;;;;;;;3.54;100.00;101401.25;5064255;28;20560;-82